Time;durP1;ratioP1;P1;durP2;ratioP2;P2;SDS_P1;SDS_P2;PMS_P1;PMS_P2;Temp;Humidity;BMP_temperature;BMP_pressure;BME280_temperature;BME280_humidity;BME280_pressure;Samples;Min_cycle;Max_cycle;Signal;HPM_P1;HPM_P2
2021/01/30 00:01:39;;;;;;;13.68;10.05;;;0.60;98.30;;;;;;5091153;23;20213;-79
2021/01/30 00:03:42;;;;;;;15.02;11.63;;;0.60;98.30;;;;;;5091581;23;20200;-80
2021/01/30 00:05:44;;;;;;;14.82;11.85;;;0.70;98.30;;;;;;5099558;23;20545;-79
2021/01/30 00:07:46;;;;;;;15.65;10.80;;;0.70;98.30;;;;;;5091047;23;20235;-80
2021/01/30 00:09:49;;;;;;;14.98;10.68;;;0.70;98.30;;;;;;5090666;23;20539;-80
2021/01/30 00:11:54;;;;;;;16.13;11.13;;;0.80;98.30;;;;;;5099497;23;20203;-80
2021/01/30 00:13:56;;;;;;;17.10;11.10;;;0.70;98.30;;;;;;5099454;23;20207;-79
2021/01/30 00:15:58;;;;;;;20.52;13.00;;;0.90;98.30;;;;;;5098940;23;20203;-79
2021/01/30 00:18:00;;;;;;;17.45;12.95;;;0.90;98.30;;;;;;5102192;23;20227;-79
2021/01/30 00:20:04;;;;;;;17.17;12.73;;;1.00;98.30;;;;;;5099920;23;20207;-80
2021/01/30 00:22:09;;;;;;;18.80;11.30;;;1.00;98.30;;;;;;5091258;23;20207;-80
2021/01/30 00:24:11;;;;;;;18.88;12.15;;;1.00;98.30;;;;;;5099172;23;20568;-80
2021/01/30 00:26:12;;;;;;;19.13;11.23;;;1.00;98.30;;;;;;5091337;23;20211;-80
2021/01/30 00:28:14;;;;;;;15.30;10.88;;;1.00;98.30;;;;;;5099431;23;20677;-80
2021/01/30 00:30:19;;;;;;;14.82;11.30;;;1.00;98.30;;;;;;5099681;23;20591;-80
2021/01/30 00:32:22;;;;;;;14.80;10.05;;;1.00;98.30;;;;;;5103698;23;20506;-80
2021/01/30 00:34:26;;;;;;;16.50;11.70;;;1.10;98.30;;;;;;5098951;23;20312;-80
2021/01/30 00:36:29;;;;;;;18.17;12.48;;;1.00;98.30;;;;;;5099047;23;20608;-80
2021/01/30 00:38:31;;;;;;;18.52;13.02;;;1.00;98.30;;;;;;5089069;23;20203;-80
2021/01/30 00:40:34;;;;;;;18.20;12.00;;;1.10;98.30;;;;;;5098232;23;20200;-80
2021/01/30 00:42:37;;;;;;;17.35;12.45;;;1.10;98.30;;;;;;5099241;23;20283;-81
2021/01/30 00:44:40;;;;;;;17.52;11.70;;;1.00;98.30;;;;;;5099111;23;20195;-80
2021/01/30 00:46:42;;;;;;;17.45;11.40;;;1.00;98.30;;;;;;5090517;23;20250;-81
2021/01/30 00:48:44;;;;;;;16.73;10.77;;;1.00;98.30;;;;;;5098385;23;20242;-80
2021/01/30 00:50:46;;;;;;;15.60;12.15;;;1.00;98.30;;;;;;5098131;23;20234;-80
2021/01/30 00:52:49;;;;;;;13.25;9.90;;;1.00;98.30;;;;;;5098935;23;20203;-80
2021/01/30 00:54:52;;;;;;;16.65;10.57;;;1.00;98.30;;;;;;5098515;23;20229;-80
2021/01/30 00:56:56;;;;;;;13.52;10.43;;;1.00;98.30;;;;;;5099284;23;20273;-79
2021/01/30 00:58:58;;;;;;;18.00;11.32;;;1.00;98.30;;;;;;5089892;23;20212;-80
2021/01/30 01:01:00;;;;;;;13.48;10.10;;;1.00;98.30;;;;;;5098980;23;20234;-79
2021/01/30 01:03:02;;;;;;;14.25;10.90;;;1.00;98.30;;;;;;5098822;23;20722;-79
2021/01/30 01:05:05;;;;;;;15.60;10.55;;;1.00;98.30;;;;;;5098446;23;20238;-79
2021/01/30 01:07:07;;;;;;;16.70;11.40;;;1.00;98.30;;;;;;5098781;23;20741;-78
2021/01/30 01:09:11;;;;;;;15.40;10.77;;;1.00;98.30;;;;;;5089096;23;20207;-79
2021/01/30 01:11:13;;;;;;;14.65;11.05;;;1.00;98.30;;;;;;5090174;23;20762;-78
2021/01/30 01:13:15;;;;;;;16.10;11.05;;;1.10;98.30;;;;;;5098927;23;20298;-79
2021/01/30 01:15:19;;;;;;;16.88;12.15;;;1.10;98.30;;;;;;5090464;23;20562;-79
2021/01/30 01:17:21;;;;;;;14.65;10.55;;;1.10;98.30;;;;;;5099423;23;20195;-79
2021/01/30 01:19:24;;;;;;;16.88;11.48;;;1.10;98.30;;;;;;5089738;23;20685;-79
2021/01/30 01:21:25;;;;;;;13.55;10.75;;;1.10;98.30;;;;;;5097720;23;20283;-79
2021/01/30 01:23:27;;;;;;;15.10;11.52;;;1.10;98.30;;;;;;5089939;23;20282;-79
2021/01/30 01:25:30;;;;;;;14.95;10.30;;;1.10;98.30;;;;;;5098202;23;20794;-80
2021/01/30 01:27:33;;;;;;;16.85;11.75;;;1.10;98.30;;;;;;5098391;23;20210;-79
2021/01/30 01:29:35;;;;;;;15.73;11.82;;;1.10;98.30;;;;;;5097341;23;20203;-80
2021/01/30 01:31:38;;;;;;;16.83;11.63;;;1.10;98.30;;;;;;5098464;23;20307;-79
2021/01/30 01:33:41;;;;;;;16.80;11.38;;;1.10;98.30;;;;;;5098846;23;20233;-80
2021/01/30 01:35:42;;;;;;;16.25;11.95;;;1.20;98.30;;;;;;5098924;23;20203;-79
2021/01/30 01:37:46;;;;;;;16.40;11.63;;;1.20;98.30;;;;;;5101765;23;20203;-80
2021/01/30 01:39:48;;;;;;;17.17;11.52;;;1.20;98.30;;;;;;5097000;23;20226;-79
2021/01/30 01:42:11;;;;;;;15.55;11.63;;;1.20;98.30;;;;;;5100131;23;20207;-80
2021/01/30 01:44:13;;;;;;;14.15;11.00;;;1.20;98.30;;;;;;5091976;23;20282;-79
2021/01/30 01:46:27;;;;;;;15.57;11.40;;;1.20;98.30;;;;;;5099749;23;20310;-79
2021/01/30 01:48:33;;;;;;;18.17;12.55;;;1.20;98.30;;;;;;5100230;23;20282;-79
2021/01/30 01:50:40;;;;;;;17.27;12.73;;;1.20;98.30;;;;;;5091224;23;20222;-79
2021/01/30 01:52:42;;;;;;;16.35;12.43;;;1.10;98.30;;;;;;5092034;23;20212;-79
2021/01/30 01:54:47;;;;;;;20.63;12.82;;;1.10;98.30;;;;;;5091724;23;20301;-79
2021/01/30 01:56:52;;;;;;;17.67;12.70;;;1.20;98.30;;;;;;5100365;23;20238;-79
2021/01/30 01:59:00;;;;;;;16.27;12.15;;;1.10;98.30;;;;;;5091174;23;20592;-79
2021/01/30 02:01:04;;;;;;;23.73;15.00;;;1.10;98.30;;;;;;5099702;23;20195;-79
2021/01/30 02:03:07;;;;;;;15.48;11.55;;;1.10;98.30;;;;;;5092069;23;20225;-79
2021/01/30 02:05:11;;;;;;;16.10;12.32;;;1.10;98.30;;;;;;5091426;23;20208;-79
2021/01/30 02:07:14;;;;;;;15.93;12.30;;;1.10;98.30;;;;;;5100768;23;20235;-79
2021/01/30 02:09:19;;;;;;;16.65;12.77;;;1.10;98.30;;;;;;5099590;23;20579;-79
2021/01/30 02:11:21;;;;;;;18.20;12.57;;;1.10;98.30;;;;;;5090830;23;20286;-79
2021/01/30 02:13:27;;;;;;;17.00;12.50;;;1.10;98.30;;;;;;5100054;23;20206;-79
2021/01/30 02:15:30;;;;;;;17.00;12.05;;;1.10;98.30;;;;;;5092222;23;20302;-79
2021/01/30 02:17:43;;;;;;;16.50;12.02;;;1.10;98.30;;;;;;5100384;23;20206;-80
2021/01/30 02:20:30;;;;;;;18.02;12.82;;;1.10;98.30;;;;;;5098884;23;20211;-79
2021/01/30 02:23:03;;;;;;;18.08;12.57;;;1.00;98.30;;;;;;5099648;23;20203;-79
2021/01/30 02:25:37;;;;;;;20.35;13.20;;;1.10;98.30;;;;;;5067548;23;20248;-80
2021/01/30 02:28:12;;;;;;;18.80;12.95;;;1.10;98.30;;;;;;5092161;23;20234;-80
2021/01/30 02:30:41;;;;;;;19.15;14.07;;;1.10;98.30;;;;;;5099263;23;20536;-79
2021/01/30 02:33:04;;;;;;;17.42;12.82;;;1.10;98.30;;;;;;5099929;23;20311;-79
2021/01/30 02:35:39;;;;;;;19.27;14.20;;;1.10;98.30;;;;;;5100529;23;20283;-79
2021/01/30 02:37:48;;;;;;;19.58;13.52;;;1.10;98.30;;;;;;5099745;23;20290;-79
2021/01/30 02:39:54;;;;;;;19.95;13.75;;;1.10;98.30;;;;;;5099646;23;20290;-79
2021/01/30 02:42:04;;;;;;;18.92;13.40;;;1.10;98.30;;;;;;5099870;23;20239;-79
2021/01/30 02:44:10;;;;;;;17.00;13.02;;;1.10;98.30;;;;;;5102706;23;20207;-80
2021/01/30 02:46:19;;;;;;;19.90;14.00;;;1.10;98.30;;;;;;5092454;23;20810;-79
2021/01/30 02:48:27;;;;;;;18.73;13.38;;;1.10;98.30;;;;;;5102639;23;20211;-79
2021/01/30 02:50:34;;;;;;;22.92;13.80;;;1.10;98.30;;;;;;5092920;23;20282;-79
2021/01/30 02:52:38;;;;;;;24.08;16.48;;;1.10;98.30;;;;;;5090184;23;20265;-80
2021/01/30 02:54:43;;;;;;;23.05;15.50;;;1.00;98.30;;;;;;5100460;23;20290;-79
2021/01/30 02:56:47;;;;;;;22.10;15.60;;;1.10;98.30;;;;;;5100965;23;20231;-79
2021/01/30 02:58:54;;;;;;;21.35;14.30;;;1.10;98.30;;;;;;5099477;23;20536;-79
2021/01/30 03:00:58;;;;;;;20.90;14.18;;;1.00;98.30;;;;;;5091465;23;20215;-79
2021/01/30 03:03:00;;;;;;;19.80;13.73;;;1.00;98.30;;;;;;5099909;23;20204;-79
2021/01/30 03:05:05;;;;;;;20.63;14.75;;;1.10;98.30;;;;;;5102759;23;20694;-79
2021/01/30 03:07:42;;;;;;;24.45;15.80;;;1.10;98.30;;;;;;5102532;23;20253;-80
2021/01/30 03:09:53;;;;;;;20.60;14.70;;;1.10;98.30;;;;;;5036184;23;20889;-80
2021/01/30 03:12:07;;;;;;;24.38;16.13;;;1.10;98.30;;;;;;5102373;23;20227;-80
2021/01/30 03:14:14;;;;;;;22.95;14.80;;;1.10;98.30;;;;;;5093442;23;20253;-80
2021/01/30 03:16:20;;;;;;;20.58;15.18;;;1.10;98.30;;;;;;5101519;23;20672;-80
2021/01/30 03:18:30;;;;;;;22.00;15.07;;;1.10;98.30;;;;;;5100716;23;20215;-80
2021/01/30 03:20:37;;;;;;;18.65;13.80;;;1.00;98.30;;;;;;5098375;23;20210;-80
2021/01/30 03:22:40;;;;;;;20.60;15.00;;;1.10;98.30;;;;;;5099610;23;20282;-80
2021/01/30 03:24:45;;;;;;;20.20;14.85;;;1.10;98.30;;;;;;5091622;23;20290;-79
2021/01/30 03:26:48;;;;;;;22.92;14.93;;;1.10;98.30;;;;;;5099751;23;20211;-80
2021/01/30 03:28:51;;;;;;;21.10;14.40;;;1.00;98.30;;;;;;5099093;23;20924;-80
2021/01/30 03:30:53;;;;;;;23.60;15.82;;;1.00;98.30;;;;;;5100022;23;20257;-80
2021/01/30 03:32:55;;;;;;;26.30;15.48;;;1.00;98.30;;;;;;5091476;23;20592;-80
2021/01/30 03:34:58;;;;;;;18.98;14.60;;;0.90;98.30;;;;;;5099588;23;20203;-80
2021/01/30 03:37:00;;;;;;;22.55;16.50;;;0.90;98.30;;;;;;5099906;23;20837;-80
2021/01/30 03:39:04;;;;;;;19.33;13.98;;;0.90;98.30;;;;;;5091333;23;20565;-80
2021/01/30 03:41:06;;;;;;;23.35;15.77;;;0.90;98.30;;;;;;5099721;23;20781;-80
2021/01/30 03:43:09;;;;;;;23.55;15.13;;;0.90;98.30;;;;;;5099868;23;20297;-80
2021/01/30 03:45:15;;;;;;;22.63;14.93;;;1.00;98.30;;;;;;5092262;23;20211;-80
2021/01/30 03:47:17;;;;;;;21.85;14.63;;;0.90;98.30;;;;;;5099771;23;20282;-80
2021/01/30 03:49:19;;;;;;;21.92;15.27;;;0.90;98.30;;;;;;5098605;23;20207;-80
2021/01/30 03:51:21;;;;;;;24.83;17.05;;;0.90;98.30;;;;;;5091280;23;20278;-80
2021/01/30 03:53:23;;;;;;;24.70;16.67;;;0.90;98.30;;;;;;5099467;23;20310;-80
2021/01/30 03:55:26;;;;;;;23.33;15.75;;;1.00;98.30;;;;;;5099620;23;20222;-80
2021/01/30 03:57:28;;;;;;;21.05;16.13;;;0.90;98.30;;;;;;5090242;23;20208;-80
2021/01/30 03:59:32;;;;;;;23.45;16.08;;;0.90;98.30;;;;;;5098030;23;20230;-80
2021/01/30 04:01:34;;;;;;;20.65;14.45;;;1.00;98.30;;;;;;5099950;23;20207;-80
2021/01/30 04:03:40;;;;;;;23.77;16.17;;;0.90;98.30;;;;;;5091300;23;20234;-80
2021/01/30 04:05:43;;;;;;;23.73;16.00;;;0.90;98.30;;;;;;5099408;23;20283;-80
2021/01/30 04:07:46;;;;;;;24.20;16.40;;;0.90;98.30;;;;;;5099169;23;20203;-80
2021/01/30 04:09:48;;;;;;;19.90;13.98;;;0.80;98.30;;;;;;5099231;23;20205;-80
2021/01/30 04:11:50;;;;;;;20.30;15.40;;;0.80;98.30;;;;;;5099263;23;20277;-80
2021/01/30 04:13:52;;;;;;;24.35;16.15;;;0.90;98.30;;;;;;5091181;23;20215;-80
2021/01/30 04:15:55;;;;;;;23.30;15.98;;;0.90;98.30;;;;;;5099633;23;20196;-80
2021/01/30 04:17:58;;;;;;;25.50;14.45;;;0.80;98.30;;;;;;5098583;23;20210;-80
2021/01/30 04:20:00;;;;;;;24.88;15.70;;;0.90;98.30;;;;;;5098756;23;20195;-80
2021/01/30 04:22:03;;;;;;;24.02;16.48;;;0.90;98.30;;;;;;5091417;23;20208;-80
2021/01/30 04:24:06;;;;;;;24.80;16.85;;;0.90;98.30;;;;;;5099446;23;20275;-80
2021/01/30 04:26:08;;;;;;;23.92;15.98;;;0.90;98.30;;;;;;5099779;23;20286;-80
2021/01/30 04:28:10;;;;;;;24.35;16.05;;;0.90;98.30;;;;;;5098002;23;20223;-79
2021/01/30 04:30:15;;;;;;;21.65;14.80;;;0.80;98.30;;;;;;5089699;23;20214;-79
2021/01/30 04:32:20;;;;;;;25.40;16.75;;;0.90;98.30;;;;;;5098735;23;20271;-79
2021/01/30 04:34:22;;;;;;;24.30;15.77;;;0.90;98.30;;;;;;5098270;23;20692;-79
2021/01/30 04:36:24;;;;;;;25.33;17.42;;;1.00;98.30;;;;;;5090171;23;20594;-79
2021/01/30 04:38:26;;;;;;;23.15;15.48;;;0.90;98.30;;;;;;5098329;23;20290;-79
2021/01/30 04:40:31;;;;;;;26.42;17.10;;;0.90;98.30;;;;;;5097712;23;20274;-79
2021/01/30 04:42:41;;;;;;;27.17;16.55;;;0.90;98.30;;;;;;5090469;23;20273;-79
2021/01/30 04:44:49;;;;;;;25.33;17.27;;;0.90;98.30;;;;;;5090456;23;20286;-79
2021/01/30 04:47:07;;;;;;;27.67;18.08;;;0.90;98.30;;;;;;5098592;23;20218;-79
2021/01/30 04:49:15;;;;;;;24.50;16.55;;;0.90;98.30;;;;;;5089917;23;20214;-79
2021/01/30 04:51:24;;;;;;;28.33;18.45;;;0.80;98.30;;;;;;5098476;23;20203;-79
2021/01/30 04:53:47;;;;;;;28.30;17.65;;;0.80;98.30;;;;;;5099396;23;20246;-79
2021/01/30 04:56:01;;;;;;;26.45;17.23;;;0.80;98.30;;;;;;5098717;23;20659;-79
2021/01/30 04:58:12;;;;;;;26.75;17.42;;;0.80;98.30;;;;;;5090897;23;20231;-79
2021/01/30 05:00:51;;;;;;;26.50;17.20;;;0.70;98.30;;;;;;5090098;23;20207;-80
2021/01/30 05:03:24;;;;;;;28.00;18.80;;;0.70;98.30;;;;;;5099266;23;20241;-80
2021/01/30 05:05:28;;;;;;;27.77;17.15;;;0.70;98.30;;;;;;5044742;23;20941;-79
2021/01/30 05:07:39;;;;;;;27.58;17.88;;;0.70;98.30;;;;;;5098827;23;20670;-79
2021/01/30 05:09:48;;;;;;;28.13;18.52;;;0.70;98.30;;;;;;5099853;23;20222;-79
2021/01/30 05:11:58;;;;;;;27.67;18.83;;;0.70;98.30;;;;;;5099467;23;20207;-79
2021/01/30 05:14:06;;;;;;;28.13;17.88;;;0.80;98.30;;;;;;5100333;23;20241;-80
2021/01/30 05:16:11;;;;;;;26.70;18.00;;;0.80;98.30;;;;;;5092606;23;20205;-80
2021/01/30 05:18:18;;;;;;;27.30;17.88;;;0.70;98.30;;;;;;5100134;23;20722;-79
2021/01/30 05:20:21;;;;;;;29.50;18.05;;;0.70;98.30;;;;;;5100013;23;20230;-80
2021/01/30 05:22:33;;;;;;;31.17;18.48;;;0.70;98.30;;;;;;5100535;23;20227;-80
2021/01/30 05:24:35;;;;;;;28.65;17.73;;;0.70;98.30;;;;;;5100561;23;20790;-80
2021/01/30 05:26:48;;;;;;;27.38;17.90;;;0.70;98.30;;;;;;5099822;23;20578;-80
2021/01/30 05:29:00;;;;;;;30.75;18.88;;;0.70;98.30;;;;;;5099810;23;20273;-80
2021/01/30 05:31:14;;;;;;;26.88;17.50;;;0.70;98.30;;;;;;5100692;23;20282;-80
2021/01/30 05:33:46;;;;;;;25.25;16.45;;;0.70;98.30;;;;;;5100158;23;20207;-80
2021/01/30 05:35:54;;;;;;;27.60;17.35;;;0.70;98.30;;;;;;5099450;23;20203;-80
2021/01/30 05:38:02;;;;;;;27.88;17.55;;;0.70;98.30;;;;;;5100010;23;20558;-79
2021/01/30 05:40:23;;;;;;;29.00;18.05;;;0.80;98.30;;;;;;5099401;23;20214;-79
2021/01/30 05:42:35;;;;;;;25.55;18.17;;;0.80;98.30;;;;;;5092119;23;20212;-80
2021/01/30 05:44:44;;;;;;;27.35;17.25;;;0.70;98.30;;;;;;5099987;23;20710;-80
2021/01/30 05:46:51;;;;;;;24.80;15.93;;;0.80;98.30;;;;;;5100099;23;20222;-80
2021/01/30 05:48:54;;;;;;;24.27;16.75;;;0.80;98.30;;;;;;5091005;23;20260;-80
2021/01/30 05:51:00;;;;;;;23.23;15.73;;;0.70;98.30;;;;;;5100292;23;20208;-80
2021/01/30 05:53:03;;;;;;;25.80;16.73;;;0.70;98.30;;;;;;5100722;23;20705;-80
2021/01/30 05:55:21;;;;;;;22.23;15.20;;;0.60;98.30;;;;;;5100294;23;20227;-80
2021/01/30 05:57:23;;;;;;;22.92;15.45;;;0.60;98.30;;;;;;5100329;23;20266;-80
2021/01/30 05:59:27;;;;;;;24.48;17.30;;;0.60;98.30;;;;;;5091300;23;20204;-80
2021/01/30 06:01:31;;;;;;;24.05;15.30;;;0.60;98.30;;;;;;5100717;23;20254;-80
2021/01/30 06:03:54;;;;;;;24.85;15.93;;;0.60;98.30;;;;;;5100150;23;20209;-80
2021/01/30 06:06:09;;;;;;;22.65;15.27;;;0.60;98.30;;;;;;5092111;23;20239;-80
2021/01/30 06:08:16;;;;;;;20.42;15.30;;;0.50;98.30;;;;;;5091618;23;20286;-80
2021/01/30 06:10:27;;;;;;;22.25;15.00;;;0.50;98.30;;;;;;5099557;23;20222;-80
2021/01/30 06:12:32;;;;;;;18.15;13.57;;;0.50;98.30;;;;;;5100174;23;21006;-80
2021/01/30 06:14:37;;;;;;;20.15;13.45;;;0.50;98.30;;;;;;5100352;23;20786;-80
2021/01/30 06:16:43;;;;;;;20.83;14.55;;;0.40;98.30;;;;;;5099787;23;20211;-79
2021/01/30 06:18:47;;;;;;;23.33;14.90;;;0.50;98.30;;;;;;5099819;23;20547;-80
2021/01/30 06:20:57;;;;;;;20.77;13.32;;;0.40;98.30;;;;;;5100158;23;20225;-80
2021/01/30 06:23:08;;;;;;;17.60;12.70;;;0.30;98.30;;;;;;5091717;23;20218;-80
2021/01/30 06:25:31;;;;;;;23.33;14.68;;;0.30;98.30;;;;;;5099963;23;20278;-80
2021/01/30 06:27:40;;;;;;;22.73;13.80;;;0.30;98.30;;;;;;5100107;23;20262;-80
2021/01/30 06:29:46;;;;;;;20.20;14.35;;;0.30;98.30;;;;;;5099402;23;20237;-80
2021/01/30 06:31:49;;;;;;;21.08;14.63;;;0.30;98.30;;;;;;5099672;23;20274;-79
2021/01/30 06:33:54;;;;;;;23.35;15.93;;;0.30;98.30;;;;;;5099933;23;20215;-80
2021/01/30 06:36:07;;;;;;;19.35;13.13;;;0.30;98.30;;;;;;5091938;23;20238;-80
2021/01/30 06:38:16;;;;;;;18.45;13.23;;;0.30;98.30;;;;;;5099772;23;20277;-79
2021/01/30 06:40:23;;;;;;;22.35;13.23;;;0.30;98.30;;;;;;5090949;23;20203;-80
2021/01/30 06:42:31;;;;;;;19.48;12.93;;;0.30;98.30;;;;;;5099730;23;20208;-80
2021/01/30 06:44:34;;;;;;;19.52;13.85;;;0.40;98.30;;;;;;5100294;23;20206;-80
2021/01/30 06:47:02;;;;;;;17.00;13.00;;;0.30;98.30;;;;;;5091499;23;20588;-80
2021/01/30 06:49:31;;;;;;;23.02;13.90;;;0.40;98.30;;;;;;5098967;23;20947;-80
2021/01/30 06:51:36;;;;;;;20.10;13.95;;;0.30;98.30;;;;;;5088110;23;20283;-80
2021/01/30 06:53:38;;;;;;;17.15;12.98;;;0.30;98.30;;;;;;5091655;23;20218;-80
2021/01/30 06:55:40;;;;;;;22.27;13.73;;;0.30;98.30;;;;;;5100116;23;20211;-80
2021/01/30 06:57:58;;;;;;;18.50;12.52;;;0.30;98.30;;;;;;5091978;23;20271;-80
2021/01/30 07:00:06;;;;;;;17.60;12.38;;;0.30;98.30;;;;;;5098882;23;20199;-80
2021/01/30 07:02:14;;;;;;;19.02;14.20;;;0.30;98.30;;;;;;5099667;23;20237;-79
2021/01/30 07:04:46;;;;;;;20.75;13.68;;;0.30;98.30;;;;;;5100298;23;20202;-80
2021/01/30 07:06:58;;;;;;;16.42;12.90;;;0.30;98.30;;;;;;5099576;23;20227;-80
2021/01/30 07:09:10;;;;;;;23.60;13.60;;;0.30;98.30;;;;;;5098808;23;20207;-80
2021/01/30 07:11:39;;;;;;;21.15;13.18;;;0.20;98.30;;;;;;5091564;23;20290;-80
2021/01/30 07:13:54;;;;;;;21.90;14.70;;;0.30;98.30;;;;;;5100235;23;20745;-79
2021/01/30 07:16:10;;;;;;;20.38;13.20;;;0.40;98.30;;;;;;5100014;23;20270;-79
2021/01/30 07:18:27;;;;;;;16.80;13.30;;;0.30;98.30;;;;;;5091285;23;20215;-79
2021/01/30 07:20:43;;;;;;;16.83;13.00;;;0.20;98.30;;;;;;5098986;23;20207;-79
2021/01/30 07:22:59;;;;;;;18.73;13.45;;;0.20;98.30;;;;;;5099218;23;20211;-79
2021/01/30 07:25:07;;;;;;;21.40;14.90;;;0.10;98.30;;;;;;5100005;23;20203;-79
2021/01/30 07:27:15;;;;;;;18.98;13.63;;;0.20;98.30;;;;;;5099696;23;20203;-79
2021/01/30 07:29:32;;;;;;;17.75;12.48;;;0.20;98.30;;;;;;5098426;23;20225;-79
2021/01/30 07:31:37;;;;;;;19.35;14.07;;;0.20;98.30;;;;;;5099581;23;20709;-79
2021/01/30 07:33:50;;;;;;;18.40;12.18;;;0.20;98.30;;;;;;5100147;23;20519;-79
2021/01/30 07:35:59;;;;;;;21.42;14.25;;;0.20;98.30;;;;;;5100727;23;20219;-79
2021/01/30 07:38:04;;;;;;;21.30;14.40;;;0.30;98.30;;;;;;5098519;23;20864;-79
2021/01/30 07:40:11;;;;;;;20.48;14.75;;;0.30;98.30;;;;;;5098544;23;20203;-79
2021/01/30 07:42:21;;;;;;;17.95;13.00;;;0.30;98.30;;;;;;5090558;23;20258;-79
2021/01/30 07:44:30;;;;;;;16.63;12.57;;;0.30;98.30;;;;;;5098810;23;20262;-79
2021/01/30 07:46:38;;;;;;;25.38;13.05;;;0.40;98.30;;;;;;5098421;23;20257;-79
2021/01/30 07:48:50;;;;;;;17.55;13.00;;;0.40;98.30;;;;;;5098521;23;20284;-79
2021/01/30 07:50:55;;;;;;;22.92;15.55;;;0.40;98.30;;;;;;5099225;23;20545;-79
2021/01/30 07:53:05;;;;;;;78.85;44.42;;;0.40;98.30;;;;;;5098736;23;20967;-79
2021/01/30 07:55:10;;;;;;;135.48;64.35;;;0.50;98.30;;;;;;5098021;23;20203;-79
2021/01/30 07:57:31;;;;;;;267.38;141.98;;;0.50;98.30;;;;;;5099091;23;20203;-79
2021/01/30 07:59:43;;;;;;;60.10;37.28;;;0.50;98.30;;;;;;5084822;23;20215;-80
2021/01/30 08:02:10;;;;;;;24.00;16.95;;;0.50;98.30;;;;;;5099082;23;20230;-79
2021/01/30 08:04:51;;;;;;;22.10;15.93;;;0.50;98.30;;;;;;5039704;23;20209;-79
2021/01/30 08:07:08;;;;;;;24.40;16.60;;;0.60;98.30;;;;;;5098917;23;20658;-79
2021/01/30 08:09:23;;;;;;;51.47;30.15;;;0.80;98.30;;;;;;5098692;23;20281;-79
2021/01/30 08:11:31;;;;;;;77.95;41.17;;;1.30;98.30;;;;;;5099320;23;20234;-79
2021/01/30 08:13:45;;;;;;;38.35;22.77;;;1.70;98.30;;;;;;5098798;23;20210;-79
2021/01/30 08:15:56;;;;;;;29.27;20.42;;;1.80;98.30;;;;;;5099371;23;20234;-79
2021/01/30 08:18:09;;;;;;;20.98;15.35;;;1.50;98.30;;;;;;5098771;23;20250;-79
2021/01/30 08:20:17;;;;;;;16.77;12.48;;;1.30;98.30;;;;;;5098458;23;20233;-80
2021/01/30 08:22:24;;;;;;;18.70;12.95;;;1.20;98.30;;;;;;5090666;23;20207;-79
2021/01/30 08:24:32;;;;;;;14.85;11.52;;;1.10;98.30;;;;;;5099274;23;20211;-79
2021/01/30 08:26:39;;;;;;;18.08;13.27;;;1.10;98.30;;;;;;5090726;23;20206;-79
2021/01/30 08:29:09;;;;;;;44.47;26.70;;;1.10;98.30;;;;;;5098684;23;20206;-79
2021/01/30 08:31:34;;;;;;;85.75;48.90;;;1.20;98.30;;;;;;5098573;23;20258;-79
2021/01/30 08:34:03;;;;;;;111.32;60.92;;;1.50;98.30;;;;;;5098636;23;20688;-79
2021/01/30 08:36:32;;;;;;;30.40;20.45;;;1.80;98.30;;;;;;5098160;23;20207;-79
2021/01/30 08:38:38;;;;;;;21.30;14.45;;;1.90;98.30;;;;;;5098416;23;20901;-79
2021/01/30 08:40:54;;;;;;;17.30;13.63;;;1.90;98.30;;;;;;5098491;23;20214;-79
2021/01/30 08:43:12;;;;;;;19.95;12.63;;;1.80;98.30;;;;;;5098374;23;20258;-79
2021/01/30 08:45:14;;;;;;;16.27;11.70;;;1.80;98.30;;;;;;5098531;23;20234;-79
2021/01/30 08:47:21;;;;;;;17.00;12.88;;;1.70;98.30;;;;;;5101200;23;20207;-79
2021/01/30 08:49:25;;;;;;;16.90;12.45;;;1.70;98.30;;;;;;5100771;23;20206;-79
2021/01/30 08:51:27;;;;;;;13.68;10.90;;;1.80;98.30;;;;;;5101305;23;20211;-79
2021/01/30 08:53:32;;;;;;;17.13;11.63;;;1.70;98.30;;;;;;5101325;23;20681;-78
2021/01/30 08:55:53;;;;;;;14.75;11.13;;;1.80;98.30;;;;;;5101187;23;20199;-78
2021/01/30 08:57:56;;;;;;;15.00;12.15;;;1.90;98.30;;;;;;5101699;23;20242;-79
2021/01/30 09:00:01;;;;;;;22.77;13.85;;;2.10;98.30;;;;;;5100914;23;20280;-79
2021/01/30 09:02:03;;;;;;;130.82;70.97;;;2.20;98.30;;;;;;5101465;23;20199;-79
2021/01/30 09:04:47;;;;;;;131.40;68.88;;;2.30;98.30;;;;;;5102176;23;20211;-79
2021/01/30 09:06:55;;;;;;;51.42;28.13;;;2.30;98.30;;;;;;5101552;23;20269;-79
2021/01/30 09:09:03;;;;;;;20.90;13.18;;;2.30;98.30;;;;;;5100626;23;20213;-79
2021/01/30 09:11:40;;;;;;;17.20;12.50;;;2.40;98.30;;;;;;5093594;23;20211;-79
2021/01/30 09:14:03;;;;;;;16.42;11.45;;;2.70;98.30;;;;;;5101522;23;20684;-79
2021/01/30 09:19:25;;;;;;;12.85;10.60;;;3.10;98.30;;;;;;5041256;23;20223;-79
2021/01/30 09:22:00;;;;;;;14.15;10.70;;;2.90;98.30;;;;;;5050482;23;20247;-79
2021/01/30 09:24:51;;;;;;;13.13;9.90;;;2.90;98.30;;;;;;5026429;23;20205;-79
2021/01/30 09:27:07;;;;;;;11.82;10.18;;;2.90;98.30;;;;;;5037358;23;20837;-78
2021/01/30 09:29:38;;;;;;;15.13;11.10;;;3.00;98.30;;;;;;5049310;23;20712;-78
2021/01/30 09:32:07;;;;;;;15.27;10.13;;;3.10;98.30;;;;;;5036040;23;20692;-79
2021/01/30 09:34:45;;;;;;;13.57;9.20;;;3.20;98.30;;;;;;5049836;23;20208;-78
2021/01/30 09:36:54;;;;;;;13.98;9.25;;;3.30;98.30;;;;;;5049905;23;20272;-78
2021/01/30 09:39:18;;;;;;;13.65;9.10;;;3.60;98.30;;;;;;5049148;23;20752;-79
2021/01/30 09:41:50;;;;;;;19.90;13.35;;;3.70;98.30;;;;;;5050055;23;20249;-78
2021/01/30 09:44:23;;;;;;;13.47;9.93;;;4.10;98.30;;;;;;5050306;23;20248;-79
2021/01/30 09:46:49;;;;;;;11.02;8.80;;;4.60;98.30;;;;;;5050224;23;20460;-79
2021/01/30 09:49:15;;;;;;;11.17;9.00;;;4.90;98.30;;;;;;5040952;23;20209;-79
2021/01/30 09:54:05;;;;;;;16.60;11.80;;;4.90;98.30;;;;;;5052227;23;20797;-79
2021/01/30 09:56:19;;;;;;;14.80;9.70;;;5.00;98.30;;;;;;5086641;23;20501;-79
2021/01/30 09:58:42;;;;;;;13.73;8.60;;;5.20;98.30;;;;;;5100411;23;20460;-79
2021/01/30 10:01:47;;;;;;;11.27;8.70;;;5.50;98.30;;;;;;5099991;23;20473;-79
2021/01/30 10:03:53;;;;;;;10.47;8.00;;;5.80;98.30;;;;;;5100988;23;20488;-79
2021/01/30 10:06:07;;;;;;;10.37;8.10;;;6.00;98.30;;;;;;5100343;23;20445;-79
2021/01/30 10:08:22;;;;;;;10.77;7.97;;;6.10;98.30;;;;;;5100099;23;20470;-79
2021/01/30 10:10:33;;;;;;;10.17;7.50;;;6.40;98.30;;;;;;5091981;23;20479;-79
2021/01/30 10:12:37;;;;;;;12.60;8.00;;;6.50;98.30;;;;;;5092240;23;20513;-79
2021/01/30 10:14:41;;;;;;;12.40;7.67;;;6.60;98.30;;;;;;5092292;23;20545;-80
2021/01/30 10:16:54;;;;;;;10.60;8.90;;;6.70;98.30;;;;;;5091488;23;20458;-79
2021/01/30 10:19:00;;;;;;;11.83;9.37;;;6.80;98.30;;;;;;5099129;23;20504;-80
2021/01/30 10:21:03;;;;;;;12.37;9.70;;;6.90;98.30;;;;;;5092136;23;20517;-79
2021/01/30 10:23:08;;;;;;;15.40;10.77;;;7.10;98.30;;;;;;5100264;23;20457;-80
2021/01/30 10:25:13;;;;;;;11.73;9.30;;;7.20;98.30;;;;;;5092121;23;21214;-79
2021/01/30 10:27:18;;;;;;;11.83;9.40;;;7.40;98.30;;;;;;5092694;23;21052;-79
2021/01/30 10:29:23;;;;;;;13.00;8.40;;;7.40;98.30;;;;;;5099196;23;20533;-79
2021/01/30 10:31:33;;;;;;;11.07;8.63;;;7.60;98.30;;;;;;5099766;23;20485;-77
2021/01/30 10:33:36;;;;;;;12.63;10.70;;;7.70;97.20;;;;;;5089992;23;20431;-77
2021/01/30 10:35:46;;;;;;;15.30;10.27;;;7.80;97.80;;;;;;5089508;23;20459;-78
2021/01/30 10:37:54;;;;;;;12.63;9.70;;;8.00;97.70;;;;;;5090374;23;20541;-77
2021/01/30 10:40:01;;;;;;;9.23;7.97;;;8.00;96.70;;;;;;5089801;23;20466;-77
2021/01/30 10:42:07;;;;;;;11.20;8.80;;;8.30;97.00;;;;;;5090229;23;20529;-77
2021/01/30 10:44:18;;;;;;;10.00;8.50;;;8.20;96.10;;;;;;5091056;23;20482;-77
2021/01/30 10:46:26;;;;;;;11.40;8.50;;;8.40;95.50;;;;;;5090702;23;21024;-77
2021/01/30 10:48:33;;;;;;;11.90;8.70;;;8.50;94.40;;;;;;5099603;23;21227;-80
2021/01/30 10:50:38;;;;;;;9.47;8.47;;;8.70;94.00;;;;;;5099090;23;20454;-80
2021/01/30 10:52:40;;;;;;;9.70;8.03;;;8.80;93.40;;;;;;5099755;23;20454;-80
2021/01/30 10:54:43;;;;;;;8.83;7.80;;;9.00;93.10;;;;;;5099084;23;20477;-80
2021/01/30 10:57:09;;;;;;;11.53;9.30;;;9.40;92.30;;;;;;5091528;23;20534;-81
2021/01/30 10:59:25;;;;;;;13.60;10.50;;;9.50;91.00;;;;;;5099301;23;21009;-80
2021/01/30 11:01:30;;;;;;;11.80;9.50;;;9.60;90.40;;;;;;5100011;23;20453;-80
2021/01/30 11:03:48;;;;;;;9.97;8.13;;;9.80;89.80;;;;;;5099796;23;20455;-80
2021/01/30 11:05:53;;;;;;;8.80;7.90;;;9.90;89.50;;;;;;5098999;23;21017;-80
2021/01/30 11:08:01;;;;;;;8.93;7.70;;;10.10;88.60;;;;;;5091524;23;20462;-79
2021/01/30 11:10:05;;;;;;;9.00;7.27;;;10.30;87.30;;;;;;5089757;23;20486;-78
2021/01/30 11:12:11;;;;;;;9.40;8.17;;;10.40;86.20;;;;;;5100071;23;20554;-81
2021/01/30 11:14:15;;;;;;;10.20;8.40;;;10.50;87.10;;;;;;5100884;23;20506;-80